Accueil
METAR-TAF:

METAR-TAF

Aéroports :

Cognac, France

Base aérienne 709 Cognac-Châteaubernard

latitude: 45-40N, longitude: 000-19W, altitude: 30 m

Observation

Le bulletin a été fait il y a 35 minutes, à 22:00 UTC
Vent 5 kt de ouest/nord-ouest
Température 13°C
Humidité 82%
Pression 1018 hPa
Visibilité 10 km ou plus

METAR: LFBG 242200Z AUTO 30005KT 9999 ////// 13/10 Q1018

Heure: 00:35 (22:35 UTC)

Prévision

Le bulletin a été fait il y a 2 heures et 35 minutes, à 20:00 UTC
Prévision valable du 24 à 21 UTC au 25 à 21 UTC
Vent 6 kt de nord-ouest
Visibilité 10 km ou plus
pas de nuages en-dessous de 1500 mètres et pas de cumulonimbus.
Evoluant progressivement
du 24 à 22 UTC au 24 à 24 UTC
Nuages fragmentés à une hauteur de 1800 ft

TAF: LFBG 242000Z 2421/2521 31006KT CAVOK BECMG 2422/2424 BKN018

Observations et prévisions météorologiques de plus de 4000 aéroports (messages METAR et TAF).

Les stations disponibles sont représentées par des disques jaunes et rouges sur la carte.

Passer la souris dessus pour voir le nom de la station.

Cliquer dessus pour voir les observations et prévisions météorologiques.

Pour changer de carte: cliquez sur les boutons verts avec une croix noire pour zoomer, sur le bouton vert avec un tiret pour effectuer un zoom arrière, ou sur les flèches vertes pour les cartes adjacentes.


METAR-TAF: